sensor_id;sensor_type;location;lat;lon;timestamp;pressure;altitude;pressure_sealevel;temperature;humidity
84578;BME280;74803;44.756;19.218;2024-01-15T00:02:00;99623.25;;;2.37;69.63
84578;BME280;74803;44.756;19.218;2024-01-15T00:04:26;99612.91;;;2.39;69.38
84578;BME280;74803;44.756;19.218;2024-01-15T00:06:51;99610.72;;;2.34;69.44
84578;BME280;74803;44.756;19.218;2024-01-15T00:09:17;99615.13;;;2.32;69.04
84578;BME280;74803;44.756;19.218;2024-01-15T00:11:43;99606.13;;;2.38;68.96
84578;BME280;74803;44.756;19.218;2024-01-15T00:14:08;99601.38;;;2.33;69.53
84578;BME280;74803;44.756;19.218;2024-01-15T00:16:34;99609.41;;;2.40;69.12
84578;BME280;74803;44.756;19.218;2024-01-15T00:19:00;99597.69;;;2.47;69.51
84578;BME280;74803;44.756;19.218;2024-01-15T00:21:25;99591.38;;;2.51;68.88
84578;BME280;74803;44.756;19.218;2024-01-15T00:23:51;99591.22;;;2.52;68.87
84578;BME280;74803;44.756;19.218;2024-01-15T00:26:16;99590.28;;;2.53;68.68
84578;BME280;74803;44.756;19.218;2024-01-15T00:28:42;99593.56;;;2.55;69.02
84578;BME280;74803;44.756;19.218;2024-01-15T00:31:08;99578.88;;;2.67;68.58
84578;BME280;74803;44.756;19.218;2024-01-15T00:33:33;99593.88;;;2.81;68.77
84578;BME280;74803;44.756;19.218;2024-01-15T00:35:59;99590.69;;;2.89;67.69
84578;BME280;74803;44.756;19.218;2024-01-15T00:38:26;99585.84;;;2.95;67.95
84578;BME280;74803;44.756;19.218;2024-01-15T00:40:51;99582.34;;;3.06;67.40
84578;BME280;74803;44.756;19.218;2024-01-15T00:43:17;99578.31;;;3.13;66.99
84578;BME280;74803;44.756;19.218;2024-01-15T00:45:44;99582.63;;;3.22;66.68
84578;BME280;74803;44.756;19.218;2024-01-15T00:48:10;99579.81;;;3.25;66.84
84578;BME280;74803;44.756;19.218;2024-01-15T00:50:35;99569.41;;;3.36;66.88
84578;BME280;74803;44.756;19.218;2024-01-15T00:53:01;99576.47;;;3.44;66.56
84578;BME280;74803;44.756;19.218;2024-01-15T00:55:28;99564.97;;;3.58;66.08
84578;BME280;74803;44.756;19.218;2024-01-15T00:57:55;99564.66;;;3.70;65.98
84578;BME280;74803;44.756;19.218;2024-01-15T01:00:21;99559.41;;;3.72;66.48
84578;BME280;74803;44.756;19.218;2024-01-15T01:02:46;99560.50;;;3.79;66.47
84578;BME280;74803;44.756;19.218;2024-01-15T01:05:12;99558.16;;;3.85;66.04
84578;BME280;74803;44.756;19.218;2024-01-15T01:07:38;99558.69;;;3.99;65.06
84578;BME280;74803;44.756;19.218;2024-01-15T01:10:04;99553.25;;;4.02;65.73
84578;BME280;74803;44.756;19.218;2024-01-15T01:12:31;99547.53;;;4.17;66.03
84578;BME280;74803;44.756;19.218;2024-01-15T01:14:56;99546.00;;;4.24;64.82
84578;BME280;74803;44.756;19.218;2024-01-15T01:17:22;99543.78;;;4.39;65.02
84578;BME280;74803;44.756;19.218;2024-01-15T01:19:49;99535.13;;;4.40;64.32
84578;BME280;74803;44.756;19.218;2024-01-15T01:22:15;99538.25;;;4.44;64.65
84578;BME280;74803;44.756;19.218;2024-01-15T01:24:40;99532.91;;;4.55;64.01
84578;BME280;74803;44.756;19.218;2024-01-15T01:27:06;99529.63;;;4.62;64.04
84578;BME280;74803;44.756;19.218;2024-01-15T01:29:32;99524.81;;;4.77;63.98
84578;BME280;74803;44.756;19.218;2024-01-15T01:31:58;99522.00;;;4.70;63.37
84578;BME280;74803;44.756;19.218;2024-01-15T01:34:23;99515.91;;;4.71;63.45
84578;BME280;74803;44.756;19.218;2024-01-15T01:36:49;99518.16;;;4.74;64.08
84578;BME280;74803;44.756;19.218;2024-01-15T01:39:14;99512.31;;;4.82;63.09
84578;BME280;74803;44.756;19.218;2024-01-15T01:41:40;99508.56;;;4.94;62.98
84578;BME280;74803;44.756;19.218;2024-01-15T01:44:06;99506.72;;;5.04;62.91
84578;BME280;74803;44.756;19.218;2024-01-15T01:46:32;99509.75;;;5.00;63.12
84578;BME280;74803;44.756;19.218;2024-01-15T01:48:59;99491.44;;;5.20;62.51
84578;BME280;74803;44.756;19.218;2024-01-15T01:51:31;99492.53;;;5.36;61.56
84578;BME280;74803;44.756;19.218;2024-01-15T01:53:57;99482.38;;;5.52;61.29
84578;BME280;74803;44.756;19.218;2024-01-15T01:56:23;99473.78;;;5.69;61.34
84578;BME280;74803;44.756;19.218;2024-01-15T01:58:49;99466.13;;;5.85;60.70
84578;BME280;74803;44.756;19.218;2024-01-15T02:01:15;99466.88;;;5.95;60.18
84578;BME280;74803;44.756;19.218;2024-01-15T02:03:41;99464.41;;;6.20;59.49
84578;BME280;74803;44.756;19.218;2024-01-15T02:06:07;99463.31;;;6.30;58.92
84578;BME280;74803;44.756;19.218;2024-01-15T02:08:34;99454.78;;;6.38;59.30
84578;BME280;74803;44.756;19.218;2024-01-15T02:11:00;99449.75;;;6.28;58.76
84578;BME280;74803;44.756;19.218;2024-01-15T02:13:26;99448.06;;;6.53;58.35
84578;BME280;74803;44.756;19.218;2024-01-15T02:15:51;99445.00;;;6.49;58.35
84578;BME280;74803;44.756;19.218;2024-01-15T02:18:17;99432.91;;;6.50;58.41
84578;BME280;74803;44.756;19.218;2024-01-15T02:20:42;99434.97;;;6.46;58.13
84578;BME280;74803;44.756;19.218;2024-01-15T02:23:10;99428.56;;;6.50;58.31
84578;BME280;74803;44.756;19.218;2024-01-15T02:25:43;99425.16;;;6.50;57.48
84578;BME280;74803;44.756;19.218;2024-01-15T02:28:14;99420.88;;;6.75;57.30
84578;BME280;74803;44.756;19.218;2024-01-15T02:30:42;99418.75;;;6.70;57.37
84578;BME280;74803;44.756;19.218;2024-01-15T02:33:08;99407.94;;;6.67;57.37
84578;BME280;74803;44.756;19.218;2024-01-15T02:35:34;99398.41;;;6.67;57.16
84578;BME280;74803;44.756;19.218;2024-01-15T02:38:02;99396.47;;;6.61;57.26
84578;BME280;74803;44.756;19.218;2024-01-15T02:40:27;99393.88;;;6.61;57.54
84578;BME280;74803;44.756;19.218;2024-01-15T02:42:53;99391.81;;;6.65;57.50
84578;BME280;74803;44.756;19.218;2024-01-15T02:45:19;99387.94;;;6.61;57.76
84578;BME280;74803;44.756;19.218;2024-01-15T02:47:45;99385.69;;;6.66;57.07
84578;BME280;74803;44.756;19.218;2024-01-15T02:50:10;99385.50;;;6.67;56.63
84578;BME280;74803;44.756;19.218;2024-01-15T02:52:36;99382.13;;;6.67;56.99
84578;BME280;74803;44.756;19.218;2024-01-15T02:55:01;99374.56;;;6.65;57.04
84578;BME280;74803;44.756;19.218;2024-01-15T02:57:27;99375.03;;;6.69;56.68
84578;BME280;74803;44.756;19.218;2024-01-15T02:59:53;99367.28;;;6.61;56.50
84578;BME280;74803;44.756;19.218;2024-01-15T03:02:18;99371.78;;;6.67;57.03
84578;BME280;74803;44.756;19.218;2024-01-15T03:04:44;99363.09;;;6.60;56.49
84578;BME280;74803;44.756;19.218;2024-01-15T03:07:10;99358.25;;;6.65;57.24
84578;BME280;74803;44.756;19.218;2024-01-15T03:09:35;99346.78;;;6.59;56.98
84578;BME280;74803;44.756;19.218;2024-01-15T03:12:01;99345.50;;;6.55;56.75
84578;BME280;74803;44.756;19.218;2024-01-15T03:14:27;99336.94;;;6.46;56.67
84578;BME280;74803;44.756;19.218;2024-01-15T03:16:53;99328.91;;;6.66;56.15
84578;BME280;74803;44.756;19.218;2024-01-15T03:19:18;99320.34;;;6.49;56.82
84578;BME280;74803;44.756;19.218;2024-01-15T03:21:44;99304.34;;;6.29;57.35
84578;BME280;74803;44.756;19.218;2024-01-15T03:24:09;99308.22;;;6.33;57.04
84578;BME280;74803;44.756;19.218;2024-01-15T03:26:35;99308.25;;;6.49;56.44
84578;BME280;74803;44.756;19.218;2024-01-15T03:29:01;99294.69;;;6.39;56.61
84578;BME280;74803;44.756;19.218;2024-01-15T03:31:26;99292.09;;;6.47;56.42
84578;BME280;74803;44.756;19.218;2024-01-15T03:33:52;99291.31;;;6.55;56.06
84578;BME280;74803;44.756;19.218;2024-01-15T03:36:18;99283.25;;;6.26;56.86
84578;BME280;74803;44.756;19.218;2024-01-15T03:38:43;99281.63;;;6.41;56.74
84578;BME280;74803;44.756;19.218;2024-01-15T03:41:09;99285.81;;;6.42;56.60
84578;BME280;74803;44.756;19.218;2024-01-15T03:43:34;99282.75;;;6.30;56.88
84578;BME280;74803;44.756;19.218;2024-01-15T03:46:00;99280.31;;;6.21;56.82
84578;BME280;74803;44.756;19.218;2024-01-15T03:48:27;99274.19;;;6.22;56.80
84578;BME280;74803;44.756;19.218;2024-01-15T03:50:53;99273.66;;;6.02;57.68
84578;BME280;74803;44.756;19.218;2024-01-15T03:53:18;99284.16;;;6.08;57.07
84578;BME280;74803;44.756;19.218;2024-01-15T03:55:49;99280.63;;;6.10;57.17
84578;BME280;74803;44.756;19.218;2024-01-15T03:58:15;99279.50;;;6.12;56.63
84578;BME280;74803;44.756;19.218;2024-01-15T04:00:41;99289.13;;;6.02;57.37
84578;BME280;74803;44.756;19.218;2024-01-15T04:03:07;99277.06;;;6.02;57.46
84578;BME280;74803;44.756;19.218;2024-01-15T04:05:32;99277.09;;;6.11;56.84
84578;BME280;74803;44.756;19.218;2024-01-15T04:07:58;99277.09;;;6.19;57.17
84578;BME280;74803;44.756;19.218;2024-01-15T04:10:24;99273.63;;;5.86;57.67
84578;BME280;74803;44.756;19.218;2024-01-15T04:12:49;99268.50;;;6.02;57.44
84578;BME280;74803;44.756;19.218;2024-01-15T04:15:15;99257.00;;;5.80;57.84
84578;BME280;74803;44.756;19.218;2024-01-15T04:17:41;99257.63;;;5.66;58.20
84578;BME280;74803;44.756;19.218;2024-01-15T04:20:07;99244.25;;;5.71;57.77
84578;BME280;74803;44.756;19.218;2024-01-15T04:22:33;99238.91;;;5.56;59.22
84578;BME280;74803;44.756;19.218;2024-01-15T04:24:59;99235.31;;;5.41;59.69
84578;BME280;74803;44.756;19.218;2024-01-15T04:27:25;99242.75;;;5.52;58.54
84578;BME280;74803;44.756;19.218;2024-01-15T04:29:50;99245.75;;;5.39;58.91
84578;BME280;74803;44.756;19.218;2024-01-15T04:32:17;99245.16;;;5.53;58.83
84578;BME280;74803;44.756;19.218;2024-01-15T04:34:42;99244.78;;;5.32;59.77
84578;BME280;74803;44.756;19.218;2024-01-15T04:37:08;99247.88;;;5.44;59.31
84578;BME280;74803;44.756;19.218;2024-01-15T04:39:34;99233.47;;;5.25;59.59
84578;BME280;74803;44.756;19.218;2024-01-15T04:41:59;99227.50;;;5.16;59.98
84578;BME280;74803;44.756;19.218;2024-01-15T04:44:25;99227.50;;;5.16;59.42
84578;BME280;74803;44.756;19.218;2024-01-15T04:46:50;99229.59;;;5.21;60.01
84578;BME280;74803;44.756;19.218;2024-01-15T04:49:19;99222.81;;;5.12;60.22
84578;BME280;74803;44.756;19.218;2024-01-15T04:51:44;99214.75;;;5.15;59.78
84578;BME280;74803;44.756;19.218;2024-01-15T04:54:10;99223.56;;;5.04;60.62
84578;BME280;74803;44.756;19.218;2024-01-15T04:56:36;99210.31;;;4.91;60.94
84578;BME280;74803;44.756;19.218;2024-01-15T04:59:02;99221.66;;;5.06;60.70
84578;BME280;74803;44.756;19.218;2024-01-15T05:01:34;99212.66;;;5.10;60.54
84578;BME280;74803;44.756;19.218;2024-01-15T05:03:59;99210.03;;;5.02;60.28
84578;BME280;74803;44.756;19.218;2024-01-15T05:06:25;99205.06;;;5.09;60.44
84578;BME280;74803;44.756;19.218;2024-01-15T05:08:50;99210.16;;;5.27;60.00
84578;BME280;74803;44.756;19.218;2024-01-15T05:11:16;99206.44;;;5.29;60.27
84578;BME280;74803;44.756;19.218;2024-01-15T05:13:41;99211.00;;;5.43;59.07
84578;BME280;74803;44.756;19.218;2024-01-15T05:16:07;99210.31;;;5.33;59.44
84578;BME280;74803;44.756;19.218;2024-01-15T05:18:33;99201.03;;;5.48;59.42
84578;BME280;74803;44.756;19.218;2024-01-15T05:20:58;99205.25;;;5.57;58.85
84578;BME280;74803;44.756;19.218;2024-01-15T05:23:24;99197.84;;;5.62;59.12
84578;BME280;74803;44.756;19.218;2024-01-15T05:25:49;99191.25;;;5.60;58.74
84578;BME280;74803;44.756;19.218;2024-01-15T05:28:15;99188.03;;;5.66;58.47
84578;BME280;74803;44.756;19.218;2024-01-15T05:30:41;99183.84;;;5.65;59.17
84578;BME280;74803;44.756;19.218;2024-01-15T05:33:07;99192.41;;;5.74;58.61
84578;BME280;74803;44.756;19.218;2024-01-15T05:35:34;99196.13;;;5.79;58.45
84578;BME280;74803;44.756;19.218;2024-01-15T05:38:00;99181.50;;;5.96;58.29
84578;BME280;74803;44.756;19.218;2024-01-15T05:40:25;99176.34;;;5.96;57.80
84578;BME280;74803;44.756;19.218;2024-01-15T05:42:51;99176.34;;;5.96;58.27
84578;BME280;74803;44.756;19.218;2024-01-15T05:45:17;99177.50;;;6.01;58.00
84578;BME280;74803;44.756;19.218;2024-01-15T05:47:42;99171.38;;;6.11;57.62
84578;BME280;74803;44.756;19.218;2024-01-15T05:50:09;99172.00;;;6.21;57.09
84578;BME280;74803;44.756;19.218;2024-01-15T05:52:35;99170.38;;;6.28;57.83
84578;BME280;74803;44.756;19.218;2024-01-15T05:55:01;99175.34;;;6.37;57.18
84578;BME280;74803;44.756;19.218;2024-01-15T05:57:28;99170.06;;;6.39;56.96
84578;BME280;74803;44.756;19.218;2024-01-15T05:59:54;99158.28;;;6.44;57.19
84578;BME280;74803;44.756;19.218;2024-01-15T06:02:19;99168.91;;;6.49;56.35
84578;BME280;74803;44.756;19.218;2024-01-15T06:04:45;99165.84;;;6.54;56.53
84578;BME280;74803;44.756;19.218;2024-01-15T06:07:11;99157.44;;;6.60;56.28
84578;BME280;74803;44.756;19.218;2024-01-15T06:09:37;99159.53;;;6.65;55.89
84578;BME280;74803;44.756;19.218;2024-01-15T06:12:04;99152.22;;;6.76;55.95
84578;BME280;74803;44.756;19.218;2024-01-15T06:14:30;99154.19;;;6.66;55.71
84578;BME280;74803;44.756;19.218;2024-01-15T06:16:56;99156.59;;;6.68;56.14
84578;BME280;74803;44.756;19.218;2024-01-15T06:19:21;99160.91;;;6.83;55.61
84578;BME280;74803;44.756;19.218;2024-01-15T06:21:47;99156.41;;;6.85;55.60
84578;BME280;74803;44.756;19.218;2024-01-15T06:24:12;99152.97;;;6.93;55.94
84578;BME280;74803;44.756;19.218;2024-01-15T06:26:39;99158.94;;;6.93;55.63
84578;BME280;74803;44.756;19.218;2024-01-15T06:29:04;99161.31;;;7.03;55.40
84578;BME280;74803;44.756;19.218;2024-01-15T06:31:30;99162.91;;;7.12;54.87
84578;BME280;74803;44.756;19.218;2024-01-15T06:33:55;99158.50;;;7.21;54.95
84578;BME280;74803;44.756;19.218;2024-01-15T06:36:21;99157.69;;;7.20;54.80
84578;BME280;74803;44.756;19.218;2024-01-15T06:38:47;99157.22;;;7.25;54.55
84578;BME280;74803;44.756;19.218;2024-01-15T06:41:13;99157.31;;;7.31;54.80
84578;BME280;74803;44.756;19.218;2024-01-15T06:43:38;99148.38;;;7.42;54.74
84578;BME280;74803;44.756;19.218;2024-01-15T06:46:04;99144.38;;;7.40;54.46
84578;BME280;74803;44.756;19.218;2024-01-15T06:48:29;99140.13;;;7.47;54.42
84578;BME280;74803;44.756;19.218;2024-01-15T06:50:56;99139.91;;;7.56;54.56
84578;BME280;74803;44.756;19.218;2024-01-15T06:53:21;99137.97;;;7.50;54.50
84578;BME280;74803;44.756;19.218;2024-01-15T06:55:47;99141.88;;;7.54;55.02
84578;BME280;74803;44.756;19.218;2024-01-15T06:58:14;99132.03;;;7.72;54.44
84578;BME280;74803;44.756;19.218;2024-01-15T07:00:40;99131.63;;;7.84;54.00
84578;BME280;74803;44.756;19.218;2024-01-15T07:03:06;99128.78;;;7.78;54.00
84578;BME280;74803;44.756;19.218;2024-01-15T07:05:31;99116.75;;;7.86;54.08
84578;BME280;74803;44.756;19.218;2024-01-15T07:07:57;99124.69;;;7.84;53.73
84578;BME280;74803;44.756;19.218;2024-01-15T07:10:23;99129.03;;;8.06;53.89
84578;BME280;74803;44.756;19.218;2024-01-15T07:12:48;99135.63;;;8.09;53.31
84578;BME280;74803;44.756;19.218;2024-01-15T07:15:14;99136.44;;;8.24;53.14
84578;BME280;74803;44.756;19.218;2024-01-15T07:17:40;99139.72;;;8.41;52.77
84578;BME280;74803;44.756;19.218;2024-01-15T07:20:09;99137.03;;;8.34;52.41
84578;BME280;74803;44.756;19.218;2024-01-15T07:22:38;99124.50;;;8.23;53.55
84578;BME280;74803;44.756;19.218;2024-01-15T07:25:04;99122.78;;;8.38;52.80
84578;BME280;74803;44.756;19.218;2024-01-15T07:27:30;99119.66;;;8.43;53.40
84578;BME280;74803;44.756;19.218;2024-01-15T07:29:56;99119.41;;;8.52;51.92
84578;BME280;74803;44.756;19.218;2024-01-15T07:32:22;99129.50;;;8.62;52.67
84578;BME280;74803;44.756;19.218;2024-01-15T07:34:48;99127.72;;;8.62;52.75
84578;BME280;74803;44.756;19.218;2024-01-15T07:37:16;99123.50;;;8.61;51.94
84578;BME280;74803;44.756;19.218;2024-01-15T07:39:45;99129.28;;;8.63;51.75
84578;BME280;74803;44.756;19.218;2024-01-15T07:42:10;99121.63;;;8.70;51.94
84578;BME280;74803;44.756;19.218;2024-01-15T07:44:36;99123.78;;;8.52;52.19
84578;BME280;74803;44.756;19.218;2024-01-15T07:47:02;99128.66;;;8.09;54.25
84578;BME280;74803;44.756;19.218;2024-01-15T07:49:29;99128.94;;;8.52;53.25
84578;BME280;74803;44.756;19.218;2024-01-15T07:51:54;99136.34;;;8.40;53.24
84578;BME280;74803;44.756;19.218;2024-01-15T07:54:20;99133.75;;;8.40;52.98
84578;BME280;74803;44.756;19.218;2024-01-15T07:56:55;99141.44;;;8.48;53.04
84578;BME280;74803;44.756;19.218;2024-01-15T07:59:21;99140.97;;;8.45;52.86
84578;BME280;74803;44.756;19.218;2024-01-15T08:01:47;99146.16;;;8.59;52.61
84578;BME280;74803;44.756;19.218;2024-01-15T08:04:13;99138.78;;;8.71;52.56
84578;BME280;74803;44.756;19.218;2024-01-15T08:06:38;99150.47;;;8.82;52.57
84578;BME280;74803;44.756;19.218;2024-01-15T08:09:04;99151.72;;;8.56;52.98
84578;BME280;74803;44.756;19.218;2024-01-15T08:11:30;99155.13;;;8.72;53.32
84578;BME280;74803;44.756;19.218;2024-01-15T08:13:56;99145.34;;;8.88;52.02
84578;BME280;74803;44.756;19.218;2024-01-15T08:16:22;99128.28;;;8.35;53.94
84578;BME280;74803;44.756;19.218;2024-01-15T08:18:49;99128.13;;;8.51;54.03
84578;BME280;74803;44.756;19.218;2024-01-15T08:21:15;99130.72;;;8.81;53.23
84578;BME280;74803;44.756;19.218;2024-01-15T08:23:40;99120.81;;;8.84;53.58
84578;BME280;74803;44.756;19.218;2024-01-15T08:26:07;99119.56;;;8.51;53.18
84578;BME280;74803;44.756;19.218;2024-01-15T08:28:32;99125.16;;;8.40;53.39
84578;BME280;74803;44.756;19.218;2024-01-15T08:31:00;99126.09;;;8.47;54.50
84578;BME280;74803;44.756;19.218;2024-01-15T08:33:25;99139.47;;;8.65;53.52
84578;BME280;74803;44.756;19.218;2024-01-15T08:35:51;99134.66;;;8.77;53.00
84578;BME280;74803;44.756;19.218;2024-01-15T08:38:16;99130.09;;;8.49;54.38
84578;BME280;74803;44.756;19.218;2024-01-15T08:40:42;99151.63;;;8.64;53.73
84578;BME280;74803;44.756;19.218;2024-01-15T08:43:07;99135.09;;;8.80;52.93
84578;BME280;74803;44.756;19.218;2024-01-15T08:45:33;99132.16;;;8.68;54.38
84578;BME280;74803;44.756;19.218;2024-01-15T08:47:59;99144.81;;;8.49;54.97
84578;BME280;74803;44.756;19.218;2024-01-15T08:50:24;99154.31;;;8.86;55.05
84578;BME280;74803;44.756;19.218;2024-01-15T08:52:50;99152.25;;;8.96;53.32
84578;BME280;74803;44.756;19.218;2024-01-15T08:55:16;99153.13;;;8.74;55.62
84578;BME280;74803;44.756;19.218;2024-01-15T08:57:41;99151.63;;;8.79;54.87
84578;BME280;74803;44.756;19.218;2024-01-15T09:00:08;99161.97;;;8.79;55.31
84578;BME280;74803;44.756;19.218;2024-01-15T09:02:34;99178.63;;;8.33;56.97
84578;BME280;74803;44.756;19.218;2024-01-15T09:05:01;99192.94;;;7.98;58.12
84578;BME280;74803;44.756;19.218;2024-01-15T09:07:27;99189.44;;;8.13;58.34
84578;BME280;74803;44.756;19.218;2024-01-15T09:09:53;99202.31;;;7.99;58.85
84578;BME280;74803;44.756;19.218;2024-01-15T09:12:19;99208.34;;;7.68;58.96
84578;BME280;74803;44.756;19.218;2024-01-15T09:14:46;99196.84;;;7.71;59.35
84578;BME280;74803;44.756;19.218;2024-01-15T09:17:12;99197.34;;;7.66;60.18
84578;BME280;74803;44.756;19.218;2024-01-15T09:19:39;99209.91;;;7.47;60.52
84578;BME280;74803;44.756;19.218;2024-01-15T09:22:05;99197.22;;;7.29;61.41
84578;BME280;74803;44.756;19.218;2024-01-15T09:24:31;99195.19;;;7.47;60.30
84578;BME280;74803;44.756;19.218;2024-01-15T09:26:56;99207.28;;;7.16;61.25
84578;BME280;74803;44.756;19.218;2024-01-15T09:29:22;99207.72;;;7.27;60.83
84578;BME280;74803;44.756;19.218;2024-01-15T09:31:49;99221.50;;;7.12;60.99
84578;BME280;74803;44.756;19.218;2024-01-15T09:34:16;99222.56;;;6.78;62.55
84578;BME280;74803;44.756;19.218;2024-01-15T09:36:42;99236.06;;;7.05;61.02
84578;BME280;74803;44.756;19.218;2024-01-15T09:39:08;99231.91;;;6.71;61.70
84578;BME280;74803;44.756;19.218;2024-01-15T09:41:35;99225.78;;;6.88;61.54
84578;BME280;74803;44.756;19.218;2024-01-15T09:44:02;99218.81;;;6.97;62.08
84578;BME280;74803;44.756;19.218;2024-01-15T09:46:28;99230.16;;;6.80;63.18
84578;BME280;74803;44.756;19.218;2024-01-15T09:48:54;99226.78;;;6.47;63.44
84578;BME280;74803;44.756;19.218;2024-01-15T09:51:23;99231.00;;;6.16;63.90
84578;BME280;74803;44.756;19.218;2024-01-15T09:53:50;99215.50;;;6.24;64.96
84578;BME280;74803;44.756;19.218;2024-01-15T09:56:16;99212.94;;;6.32;65.49
84578;BME280;74803;44.756;19.218;2024-01-15T09:58:42;99202.16;;;6.36;65.92
84578;BME280;74803;44.756;19.218;2024-01-15T10:01:11;99181.00;;;6.33;66.44
84578;BME280;74803;44.756;19.218;2024-01-15T10:03:47;99183.25;;;6.52;65.23
84578;BME280;74803;44.756;19.218;2024-01-15T10:06:16;99166.31;;;6.58;66.09
84578;BME280;74803;44.756;19.218;2024-01-15T10:08:50;99147.44;;;6.65;65.28
84578;BME280;74803;44.756;19.218;2024-01-15T10:11:16;99153.91;;;6.37;65.42
84578;BME280;74803;44.756;19.218;2024-01-15T10:13:46;99166.16;;;5.70;67.61
84578;BME280;74803;44.756;19.218;2024-01-15T10:16:12;99156.47;;;5.64;68.08
84578;BME280;74803;44.756;19.218;2024-01-15T10:18:38;99138.47;;;5.88;72.72
84578;BME280;74803;44.756;19.218;2024-01-15T10:21:07;99132.00;;;5.60;73.03
84578;BME280;74803;44.756;19.218;2024-01-15T10:23:33;99125.31;;;5.25;72.93
84578;BME280;74803;44.756;19.218;2024-01-15T10:26:00;99123.53;;;5.17;73.21
84578;BME280;74803;44.756;19.218;2024-01-15T10:28:29;99124.22;;;5.36;75.50
84578;BME280;74803;44.756;19.218;2024-01-15T10:30:58;99115.59;;;6.10;79.45
84578;BME280;74803;44.756;19.218;2024-01-15T10:33:26;99109.22;;;6.61;79.76
84578;BME280;74803;44.756;19.218;2024-01-15T10:36:00;99113.28;;;6.86;78.91
84578;BME280;74803;44.756;19.218;2024-01-15T10:38:26;99123.06;;;6.68;77.63
84578;BME280;74803;44.756;19.218;2024-01-15T10:40:53;99124.16;;;6.73;74.90
84578;BME280;74803;44.756;19.218;2024-01-15T10:43:19;99114.19;;;7.01;67.21
84578;BME280;74803;44.756;19.218;2024-01-15T10:45:46;99103.50;;;7.12;66.15
84578;BME280;74803;44.756;19.218;2024-01-15T10:48:12;99109.41;;;7.21;65.50
84578;BME280;74803;44.756;19.218;2024-01-15T10:50:37;99105.63;;;7.09;65.35
84578;BME280;74803;44.756;19.218;2024-01-15T10:53:04;99105.19;;;6.97;64.40
84578;BME280;74803;44.756;19.218;2024-01-15T10:55:32;99100.97;;;7.58;63.89
84578;BME280;74803;44.756;19.218;2024-01-15T10:57:59;99093.78;;;7.68;63.11
84578;BME280;74803;44.756;19.218;2024-01-15T11:00:25;99092.44;;;7.72;63.22
84578;BME280;74803;44.756;19.218;2024-01-15T11:02:51;99084.13;;;7.39;63.64
84578;BME280;74803;44.756;19.218;2024-01-15T11:05:21;99078.31;;;7.60;62.99
84578;BME280;74803;44.756;19.218;2024-01-15T11:07:51;99086.47;;;7.26;62.74
84578;BME280;74803;44.756;19.218;2024-01-15T11:10:42;99092.91;;;7.30;62.99
84578;BME280;74803;44.756;19.218;2024-01-15T11:13:10;99091.66;;;8.09;59.75
84578;BME280;74803;44.756;19.218;2024-01-15T11:15:58;99094.22;;;8.32;59.51
84578;BME280;74803;44.756;19.218;2024-01-15T11:18:37;99085.75;;;7.63;61.72
84578;BME280;74803;44.756;19.218;2024-01-15T11:23:51;99082.28;;;7.48;61.88
84578;BME280;74803;44.756;19.218;2024-01-15T11:26:45;99072.72;;;7.94;60.70
84578;BME280;74803;44.756;19.218;2024-01-15T11:34:21;99052.41;;;7.45;63.70
84578;BME280;74803;44.756;19.218;2024-01-15T11:37:07;99045.94;;;7.26;65.24
84578;BME280;74803;44.756;19.218;2024-01-15T11:42:00;99042.16;;;7.37;63.38
84578;BME280;74803;44.756;19.218;2024-01-15T11:44:26;99037.31;;;7.11;64.05
84578;BME280;74803;44.756;19.218;2024-01-15T11:47:04;99032.50;;;7.08;64.16
84578;BME280;74803;44.756;19.218;2024-01-15T11:52:10;99030.56;;;6.79;65.16
84578;BME280;74803;44.756;19.218;2024-01-15T11:54:38;99025.47;;;6.63;65.81
84578;BME280;74803;44.756;19.218;2024-01-15T11:57:10;99019.00;;;6.36;65.02
84578;BME280;74803;44.756;19.218;2024-01-15T11:59:43;99014.06;;;6.11;66.81
84578;BME280;74803;44.756;19.218;2024-01-15T12:02:11;99006.66;;;6.16;67.31
84578;BME280;74803;44.756;19.218;2024-01-15T12:04:38;99000.94;;;6.28;67.01
84578;BME280;74803;44.756;19.218;2024-01-15T12:07:04;98989.94;;;5.95;66.82
84578;BME280;74803;44.756;19.218;2024-01-15T12:09:30;98994.97;;;6.36;66.84
84578;BME280;74803;44.756;19.218;2024-01-15T12:12:05;98992.94;;;6.85;65.55
84578;BME280;74803;44.756;19.218;2024-01-15T12:14:33;98990.16;;;7.17;64.36
84578;BME280;74803;44.756;19.218;2024-01-15T12:17:00;98990.03;;;7.11;64.75
84578;BME280;74803;44.756;19.218;2024-01-15T12:19:26;98992.69;;;7.40;64.72
84578;BME280;74803;44.756;19.218;2024-01-15T12:21:51;98985.75;;;7.41;64.39
84578;BME280;74803;44.756;19.218;2024-01-15T12:24:17;98981.19;;;7.65;63.36
84578;BME280;74803;44.756;19.218;2024-01-15T12:26:44;98981.09;;;7.59;63.82
84578;BME280;74803;44.756;19.218;2024-01-15T12:29:12;98966.56;;;7.58;63.61
84578;BME280;74803;44.756;19.218;2024-01-15T12:31:38;98966.13;;;7.54;64.38
84578;BME280;74803;44.756;19.218;2024-01-15T12:34:05;98952.28;;;7.47;64.76
84578;BME280;74803;44.756;19.218;2024-01-15T12:36:31;98956.84;;;7.22;65.71
84578;BME280;74803;44.756;19.218;2024-01-15T12:39:00;98949.16;;;6.91;66.67
84578;BME280;74803;44.756;19.218;2024-01-15T12:41:26;98951.13;;;6.89;67.28
84578;BME280;74803;44.756;19.218;2024-01-15T12:43:51;98947.41;;;7.15;67.40
84578;BME280;74803;44.756;19.218;2024-01-15T12:46:17;98952.56;;;6.92;67.78
84578;BME280;74803;44.756;19.218;2024-01-15T12:48:44;98956.06;;;6.99;68.37
84578;BME280;74803;44.756;19.218;2024-01-15T12:51:10;98949.91;;;6.77;68.91
84578;BME280;74803;44.756;19.218;2024-01-15T12:53:35;98941.31;;;6.85;69.76
84578;BME280;74803;44.756;19.218;2024-01-15T12:56:02;98943.53;;;6.88;69.95
84578;BME280;74803;44.756;19.218;2024-01-15T12:58:28;98940.91;;;6.73;70.68
84578;BME280;74803;44.756;19.218;2024-01-15T13:00:55;98936.59;;;6.66;71.30
84578;BME280;74803;44.756;19.218;2024-01-15T13:03:22;98933.66;;;6.91;71.93
84578;BME280;74803;44.756;19.218;2024-01-15T13:05:48;98928.34;;;6.93;72.66
84578;BME280;74803;44.756;19.218;2024-01-15T13:08:14;98923.19;;;6.93;72.78
84578;BME280;74803;44.756;19.218;2024-01-15T13:10:40;98922.31;;;6.78;73.30